Time;durP1;ratioP1;P1;durP2;ratioP2;P2;SDS_P1;SDS_P2;PMS_P1;PMS_P2;Temp;Humidity;BMP_temperature;BMP_pressure;BME280_temperature;BME280_humidity;BME280_pressure;Samples;Min_cycle;Max_cycle;Signal;HPM_P1;HPM_P2
2023/03/27 00:00:11;;;;;;;7.03;3.00;;;13.70;65.60;;;;;;6061864;23;20197;-71
2023/03/27 00:02:42;;;;;;;6.53;3.20;;;13.60;65.60;;;;;;6064085;23;20608;-71
2023/03/27 00:05:10;;;;;;;7.10;3.40;;;13.60;65.70;;;;;;6066271;23;20178;-71
2023/03/27 00:07:40;;;;;;;6.47;3.93;;;13.50;66.00;;;;;;6061017;23;20234;-71
2023/03/27 00:10:09;;;;;;;7.77;3.40;;;13.50;66.10;;;;;;6065473;23;20181;-72
2023/03/27 00:12:38;;;;;;;9.57;3.60;;;13.40;66.10;;;;;;6064170;23;20201;-71
2023/03/27 00:15:07;;;;;;;6.00;3.20;;;13.40;66.20;;;;;;6065934;23;20247;-71
2023/03/27 00:17:36;;;;;;;6.00;3.03;;;13.40;66.50;;;;;;6062185;23;20560;-71
2023/03/27 00:20:06;;;;;;;8.40;2.90;;;13.30;66.70;;;;;;6065333;23;20174;-70
2023/03/27 00:22:35;;;;;;;5.43;3.10;;;13.30;67.10;;;;;;6062892;23;20490;-71
2023/03/27 00:25:04;;;;;;;6.97;3.30;;;13.30;66.90;;;;;;6065603;23;20233;-71
2023/03/27 00:27:32;;;;;;;5.83;2.90;;;13.20;67.10;;;;;;6063169;23;20174;-74
2023/03/27 00:30:00;;;;;;;7.07;3.33;;;13.20;66.80;;;;;;6061870;23;20178;-71
2023/03/27 00:32:28;;;;;;;5.83;3.00;;;13.20;66.80;;;;;;6064110;23;20195;-71
2023/03/27 00:34:57;;;;;;;6.07;3.20;;;13.10;66.80;;;;;;6061859;23;20178;-72
2023/03/27 00:37:26;;;;;;;5.90;3.20;;;13.20;66.80;;;;;;6060937;23;20182;-75
2023/03/27 00:39:55;;;;;;;4.50;2.60;;;13.20;67.20;;;;;;6060137;23;20248;-71
2023/03/27 00:42:24;;;;;;;7.13;3.20;;;13.10;66.80;;;;;;6062370;23;20179;-71
2023/03/27 00:44:53;;;;;;;9.00;3.47;;;13.20;66.80;;;;;;6063836;23;20182;-72
2023/03/27 00:47:29;;;;;;;6.27;3.10;;;13.10;66.70;;;;;;6062664;23;20230;-72
2023/03/27 00:49:59;;;;;;;7.20;3.77;;;13.10;66.70;;;;;;6064485;23;20245;-72
2023/03/27 00:52:30;;;;;;;8.47;3.73;;;13.10;66.80;;;;;;6063483;23;20198;-71
2023/03/27 00:55:02;;;;;;;4.90;3.13;;;13.10;66.70;;;;;;6064892;23;20215;-71
2023/03/27 00:57:31;;;;;;;5.90;3.00;;;13.10;66.80;;;;;;6062655;23;20202;-70
2023/03/27 01:00:05;;;;;;;7.13;3.27;;;13.10;66.80;;;;;;6064721;23;20982;-71
2023/03/27 01:02:36;;;;;;;8.40;3.30;;;13.00;66.90;;;;;;6063016;23;20165;-71
2023/03/27 01:05:06;;;;;;;8.67;3.10;;;13.00;66.90;;;;;;6065382;23;20189;-71
2023/03/27 01:07:38;;;;;;;8.80;3.43;;;13.00;67.20;;;;;;6063298;23;20165;-71
2023/03/27 01:10:08;;;;;;;6.97;3.50;;;12.90;67.30;;;;;;6063689;23;20202;-72
2023/03/27 01:12:43;;;;;;;9.23;3.43;;;12.90;67.30;;;;;;6061639;23;20192;-74
2023/03/27 01:15:25;;;;;;;10.57;3.90;;;12.80;67.30;;;;;;6064798;23;20162;-71
2023/03/27 01:18:05;;;;;;;5.70;3.10;;;12.80;67.40;;;;;;6063735;23;20170;-71
2023/03/27 01:21:06;;;;;;;8.13;3.43;;;12.80;67.60;;;;;;6064005;23;20520;-72
2023/03/27 01:24:00;;;;;;;8.70;3.93;;;12.70;67.60;;;;;;6065901;23;20182;-71
2023/03/27 01:27:05;;;;;;;7.37;3.67;;;12.70;67.70;;;;;;6063765;23;20238;-72
2023/03/27 01:29:55;;;;;;;6.93;3.83;;;12.70;68.60;;;;;;6034383;23;20179;-72
2023/03/27 01:32:51;;;;;;;8.73;4.23;;;12.60;67.70;;;;;;6063166;23;20238;-76
2023/03/27 01:35:46;;;;;;;5.80;3.30;;;12.60;68.00;;;;;;6066211;23;20185;-71
2023/03/27 01:39:00;;;;;;;10.77;5.93;;;12.60;68.00;;;;;;6016872;23;20178;-71
2023/03/27 01:41:35;;;;;;;9.47;5.00;;;12.60;69.00;;;;;;6006117;23;20178;-72
2023/03/27 01:44:13;;;;;;;10.20;4.83;;;12.50;68.60;;;;;;6066715;23;20600;-71
2023/03/27 01:46:49;;;;;;;13.17;5.53;;;12.50;68.80;;;;;;6068002;23;20464;-71
2023/03/27 01:49:23;;;;;;;15.03;6.30;;;12.40;68.80;;;;;;6068317;23;20498;-72
2023/03/27 01:51:57;;;;;;;10.00;5.50;;;12.40;68.80;;;;;;6066012;23;20245;-71
2023/03/27 01:54:29;;;;;;;12.93;6.13;;;12.40;69.10;;;;;;6066117;23;20171;-71
2023/03/27 01:57:07;;;;;;;12.97;6.17;;;12.40;69.30;;;;;;6067279;23;20504;-72
2023/03/27 01:59:39;;;;;;;18.37;6.97;;;12.40;69.70;;;;;;6064115;23;20181;-72
2023/03/27 02:02:13;;;;;;;16.17;7.30;;;12.30;69.70;;;;;;6064693;23;20686;-71
2023/03/27 02:04:45;;;;;;;15.50;6.83;;;12.30;69.70;;;;;;6063619;23;20163;-72
2023/03/27 02:07:21;;;;;;;13.50;6.10;;;12.30;69.70;;;;;;6067279;23;20241;-72
2023/03/27 02:09:53;;;;;;;13.70;6.67;;;12.30;70.00;;;;;;6068241;23;20664;-71
2023/03/27 02:12:27;;;;;;;12.27;6.53;;;12.20;72.00;;;;;;6064115;23;20182;-72
2023/03/27 02:14:59;;;;;;;19.80;6.63;;;12.10;71.60;;;;;;6065675;23;20181;-76
2023/03/27 02:17:51;;;;;;;11.93;5.87;;;12.10;72.10;;;;;;6065956;23;20258;-74
2023/03/27 02:20:19;;;;;;;9.60;5.00;;;12.00;72.20;;;;;;6067162;23;20167;-71
2023/03/27 02:22:48;;;;;;;11.43;5.70;;;12.00;71.80;;;;;;6065040;23;20182;-72
2023/03/27 02:25:26;;;;;;;10.20;5.33;;;12.10;71.70;;;;;;6063858;23;20478;-72
2023/03/27 02:28:08;;;;;;;14.33;5.83;;;12.00;71.60;;;;;;6064942;23;20199;-71
2023/03/27 02:30:43;;;;;;;12.17;5.20;;;12.10;71.90;;;;;;6053364;23;20167;-71
2023/03/27 02:33:18;;;;;;;8.20;4.97;;;12.10;71.70;;;;;;6065067;23;20501;-72
2023/03/27 02:35:56;;;;;;;13.23;5.30;;;12.10;71.70;;;;;;6067671;23;20241;-76
2023/03/27 02:38:30;;;;;;;12.33;5.13;;;12.00;71.70;;;;;;6067923;23;20195;-71
2023/03/27 02:41:09;;;;;;;11.77;5.30;;;12.00;71.70;;;;;;6062443;23;20379;-74
2023/03/27 02:43:44;;;;;;;14.60;5.77;;;12.00;71.70;;;;;;6065942;23;20779;-72
2023/03/27 02:46:16;;;;;;;10.30;5.70;;;12.00;71.70;;;;;;6066237;23;20757;-72
2023/03/27 02:48:47;;;;;;;14.87;5.90;;;12.00;72.50;;;;;;6068734;23;20163;-72
2023/03/27 02:51:21;;;;;;;11.73;6.00;;;12.00;72.10;;;;;;6066299;23;20186;-71
2023/03/27 02:53:54;;;;;;;15.13;7.27;;;11.90;72.00;;;;;;6064813;23;20210;-71
2023/03/27 02:56:25;;;;;;;12.97;6.30;;;12.00;72.20;;;;;;6064929;23;20162;-72
2023/03/27 02:59:02;;;;;;;11.87;6.53;;;11.90;72.30;;;;;;6065998;23;20238;-72
2023/03/27 03:01:32;;;;;;;11.50;6.13;;;12.00;72.70;;;;;;6065158;23;20166;-71
2023/03/27 03:04:03;;;;;;;14.20;6.37;;;11.90;73.30;;;;;;6064136;23;20170;-72
2023/03/27 03:06:32;;;;;;;13.23;6.40;;;12.00;73.20;;;;;;6062820;23;20170;-71
2023/03/27 03:09:03;;;;;;;12.87;5.80;;;12.00;73.10;;;;;;6065442;23;20179;-72
2023/03/27 03:11:33;;;;;;;12.93;6.30;;;11.90;74.00;;;;;;6065233;23;20222;-71
2023/03/27 03:14:03;;;;;;;12.17;6.07;;;11.90;75.40;;;;;;6064445;23;20194;-71
2023/03/27 03:16:32;;;;;;;11.67;6.00;;;11.90;75.80;;;;;;6064208;23;20203;-72
2023/03/27 03:19:00;;;;;;;11.90;6.27;;;11.90;75.80;;;;;;6065121;23;20183;-71
2023/03/27 03:21:29;;;;;;;12.13;6.27;;;11.90;77.70;;;;;;6065404;23;20238;-72
2023/03/27 03:23:57;;;;;;;13.27;7.10;;;11.90;77.20;;;;;;6065269;23;20507;-72
2023/03/27 03:26:26;;;;;;;14.60;7.17;;;11.90;76.60;;;;;;6062496;23;20186;-72
2023/03/27 03:28:56;;;;;;;17.80;7.27;;;11.90;76.20;;;;;;6065818;23;20178;-72
2023/03/27 03:31:43;;;;;;;11.63;6.90;;;11.90;76.00;;;;;;6063713;23;20166;-71
2023/03/27 03:34:13;;;;;;;14.47;8.20;;;12.00;76.00;;;;;;6062151;23;20193;-72
2023/03/27 03:36:41;;;;;;;14.10;7.00;;;11.90;75.70;;;;;;6063609;23;20183;-72
2023/03/27 03:39:11;;;;;;;15.20;7.03;;;11.90;76.00;;;;;;6063370;23;20632;-72
2023/03/27 03:41:49;;;;;;;13.67;7.27;;;12.00;75.70;;;;;;6064169;23;20231;-75
2023/03/27 03:44:17;;;;;;;16.50;7.70;;;11.90;75.70;;;;;;6064891;23;20542;-72
2023/03/27 03:46:47;;;;;;;14.53;6.90;;;11.90;75.50;;;;;;6065454;23;20211;-72
2023/03/27 03:49:15;;;;;;;12.67;6.87;;;12.00;76.00;;;;;;6064870;23;20229;-74
2023/03/27 03:51:44;;;;;;;11.63;6.67;;;11.90;76.10;;;;;;6063916;23;20179;-72
2023/03/27 03:54:13;;;;;;;11.60;6.73;;;11.90;77.10;;;;;;6063890;23;20519;-72
2023/03/27 03:56:42;;;;;;;13.03;7.10;;;11.80;78.60;;;;;;6064080;23;20178;-73
2023/03/27 03:59:10;;;;;;;11.97;6.90;;;11.80;78.00;;;;;;6064831;23;20509;-72
2023/03/27 04:01:39;;;;;;;13.80;7.20;;;11.80;78.50;;;;;;6065979;23;20211;-72
2023/03/27 04:04:10;;;;;;;10.17;6.63;;;11.70;78.80;;;;;;6062848;23;20175;-71
2023/03/27 04:06:38;;;;;;;11.17;6.70;;;11.70;78.60;;;;;;6061198;23;20175;-72
2023/03/27 04:09:07;;;;;;;12.07;6.77;;;11.70;78.50;;;;;;6062954;23;20214;-72
2023/03/27 04:11:36;;;;;;;16.67;7.17;;;11.70;79.00;;;;;;6065175;23;20554;-72
2023/03/27 04:14:05;;;;;;;14.53;6.30;;;11.60;78.70;;;;;;6066063;23;20198;-72
2023/03/27 04:16:33;;;;;;;17.13;7.10;;;11.60;78.70;;;;;;6063549;23;20202;-72
2023/03/27 04:19:02;;;;;;;14.87;6.23;;;11.60;78.80;;;;;;6063344;23;20206;-73
2023/03/27 04:21:31;;;;;;;11.23;6.17;;;11.60;78.80;;;;;;6065809;23;20178;-72
2023/03/27 04:24:01;;;;;;;13.47;6.13;;;11.50;79.40;;;;;;6064799;23;20170;-72
2023/03/27 04:26:30;;;;;;;12.87;6.37;;;11.50;79.30;;;;;;6064569;23;20209;-72
2023/03/27 04:28:58;;;;;;;12.37;6.03;;;11.50;78.90;;;;;;6063044;23;20511;-76
2023/03/27 04:31:29;;;;;;;9.80;5.07;;;11.50;79.00;;;;;;6048626;23;20249;-72
2023/03/27 04:33:58;;;;;;;9.87;5.37;;;11.50;79.20;;;;;;6065206;23;20204;-76
2023/03/27 04:36:27;;;;;;;9.23;4.90;;;11.50;79.30;;;;;;6062529;23;20178;-72
2023/03/27 04:39:01;;;;;;;9.13;4.80;;;11.50;79.40;;;;;;6062713;23;20171;-73
2023/03/27 04:41:29;;;;;;;9.53;4.77;;;11.50;80.20;;;;;;6063821;23;20162;-72
2023/03/27 04:43:57;;;;;;;8.27;4.97;;;11.50;80.50;;;;;;6064845;23;20178;-73
2023/03/27 04:46:26;;;;;;;11.50;5.70;;;11.50;80.80;;;;;;6063063;23;20244;-73
2023/03/27 04:48:55;;;;;;;13.30;5.43;;;11.50;80.80;;;;;;6063893;23;20515;-72
2023/03/27 04:51:25;;;;;;;10.67;5.50;;;11.50;80.50;;;;;;6060929;23;20225;-73
2023/03/27 04:53:55;;;;;;;7.13;5.37;;;11.60;80.90;;;;;;6063355;23;20195;-72
2023/03/27 04:56:25;;;;;;;10.67;5.87;;;11.60;80.80;;;;;;6064009;23;20241;-74
2023/03/27 04:58:53;;;;;;;11.53;5.70;;;11.60;81.80;;;;;;6063807;23;20253;-72
2023/03/27 05:01:21;;;;;;;10.50;4.87;;;11.60;81.10;;;;;;6063489;23;20229;-73
2023/03/27 05:03:50;;;;;;;7.90;4.77;;;11.60;81.20;;;;;;6065124;23;20226;-72
2023/03/27 05:06:18;;;;;;;7.13;4.80;;;11.60;81.20;;;;;;6065070;23;20193;-72
2023/03/27 05:08:46;;;;;;;10.27;4.17;;;11.70;81.00;;;;;;6063899;23;20193;-73
2023/03/27 05:11:15;;;;;;;8.20;4.13;;;11.70;80.90;;;;;;6062659;23;20178;-72
2023/03/27 05:13:45;;;;;;;8.23;3.60;;;11.80;80.60;;;;;;6064749;23;20257;-72
2023/03/27 05:16:16;;;;;;;7.70;4.50;;;11.80;80.50;;;;;;6064405;23;20182;-73
2023/03/27 05:18:45;;;;;;;7.70;4.43;;;11.90;80.40;;;;;;6063848;23;20178;-74
2023/03/27 05:21:13;;;;;;;8.07;4.03;;;11.90;80.40;;;;;;6062803;23;20238;-73
2023/03/27 05:23:42;;;;;;;9.03;4.40;;;12.00;80.40;;;;;;6065451;23;20234;-73
2023/03/27 05:26:10;;;;;;;8.10;4.43;;;12.00;80.20;;;;;;6062410;23;20189;-72
2023/03/27 05:28:39;;;;;;;10.17;4.77;;;12.10;80.50;;;;;;6064076;23;20182;-73
2023/03/27 05:31:09;;;;;;;10.63;5.10;;;12.10;79.80;;;;;;6063887;23;20179;-74
2023/03/27 05:33:38;;;;;;;9.10;5.00;;;12.10;79.70;;;;;;6065307;23;20190;-72
2023/03/27 05:36:08;;;;;;;9.03;4.80;;;12.10;79.80;;;;;;6061988;23;20182;-77
2023/03/27 05:38:38;;;;;;;10.37;4.80;;;12.10;79.80;;;;;;6061696;23;20178;-72
2023/03/27 05:41:07;;;;;;;7.73;4.27;;;12.10;79.80;;;;;;6063677;23;20175;-72
2023/03/27 05:43:35;;;;;;;7.07;4.40;;;12.10;80.30;;;;;;6063476;23;20234;-75
2023/03/27 05:46:04;;;;;;;8.20;4.10;;;12.20;80.20;;;;;;6064052;23;20178;-75
2023/03/27 05:48:34;;;;;;;8.07;4.40;;;12.20;79.20;;;;;;6062765;23;20702;-72
2023/03/27 05:51:03;;;;;;;7.67;4.13;;;12.30;79.00;;;;;;6060638;23;20193;-75
2023/03/27 05:53:31;;;;;;;8.43;4.00;;;12.40;79.10;;;;;;6059148;23;20183;-73
2023/03/27 05:56:00;;;;;;;7.83;4.13;;;12.50;78.90;;;;;;6061987;23;20218;-73
2023/03/27 05:58:30;;;;;;;7.57;3.90;;;12.60;78.80;;;;;;6064548;23;20206;-72
2023/03/27 06:00:59;;;;;;;9.03;4.37;;;12.70;78.50;;;;;;6065920;23;20479;-73
2023/03/27 06:03:29;;;;;;;9.63;4.33;;;12.80;78.10;;;;;;6060221;23;20179;-73
2023/03/27 06:05:59;;;;;;;7.83;4.00;;;12.90;78.00;;;;;;6066610;23;20190;-73
2023/03/27 06:08:28;;;;;;;7.13;3.60;;;13.00;77.70;;;;;;6061376;23;20169;-73
2023/03/27 06:10:57;;;;;;;7.77;4.13;;;13.20;77.50;;;;;;6065774;23;20174;-76
2023/03/27 06:13:25;;;;;;;7.77;3.80;;;13.30;77.20;;;;;;6064884;23;20185;-72
2023/03/27 06:15:54;;;;;;;10.10;4.30;;;13.40;77.00;;;;;;6063848;23;20321;-72
2023/03/27 06:18:23;;;;;;;10.80;4.03;;;13.50;76.70;;;;;;6063375;23;20696;-73
2023/03/27 06:20:52;;;;;;;8.03;3.53;;;13.50;76.40;;;;;;6064510;23;20186;-75
2023/03/27 06:23:22;;;;;;;9.10;4.57;;;13.60;76.30;;;;;;6064457;23;20175;-73
2023/03/27 06:25:51;;;;;;;8.80;4.07;;;13.70;76.00;;;;;;6064247;23;20238;-73
2023/03/27 06:28:20;;;;;;;9.50;4.13;;;13.80;75.80;;;;;;6064467;23;20183;-72
2023/03/27 06:30:50;;;;;;;9.97;4.17;;;13.80;75.60;;;;;;6069343;23;20237;-72
2023/03/27 06:33:18;;;;;;;7.63;3.40;;;13.90;74.70;;;;;;6066481;23;20178;-73
2023/03/27 06:35:47;;;;;;;9.85;4.30;;;13.90;74.50;;;;;;6066597;23;20881;-73
2023/03/27 06:38:22;;;;;;;8.57;3.60;;;14.00;74.10;;;;;;6065830;23;20195;-73
2023/03/27 06:40:50;;;;;;;8.00;4.33;;;14.10;73.80;;;;;;6069272;23;20210;-75
2023/03/27 06:43:21;;;;;;;8.37;4.00;;;14.20;73.50;;;;;;6067571;23;20178;-72
2023/03/27 06:45:50;;;;;;;7.63;3.87;;;14.30;73.50;;;;;;6067915;23;20627;-74
2023/03/27 06:48:20;;;;;;;6.13;3.43;;;14.30;72.80;;;;;;6067257;23;20185;-72
2023/03/27 06:50:52;;;;;;;7.40;3.60;;;14.40;72.20;;;;;;6069049;23;20241;-72
2023/03/27 06:53:22;;;;;;;6.37;3.80;;;14.50;72.30;;;;;;6065927;23;20163;-74
2023/03/27 06:55:56;;;;;;;8.33;4.50;;;14.60;72.20;;;;;;6064183;23;20182;-73
2023/03/27 06:58:26;;;;;;;10.00;3.40;;;14.70;71.70;;;;;;6064953;23;20202;-73
2023/03/27 07:00:54;;;;;;;8.77;3.50;;;14.80;71.80;;;;;;6067261;23;20185;-73
2023/03/27 07:03:24;;;;;;;8.60;3.60;;;14.90;71.80;;;;;;6065380;23;20178;-74
2023/03/27 07:05:52;;;;;;;6.93;3.80;;;15.10;71.30;;;;;;6066095;23;20572;-74
2023/03/27 07:08:23;;;;;;;6.80;3.67;;;15.20;70.40;;;;;;6064101;23;20189;-75
2023/03/27 07:10:53;;;;;;;7.10;3.10;;;15.20;69.60;;;;;;6060190;23;20162;-74
2023/03/27 07:13:24;;;;;;;8.33;3.47;;;15.30;68.50;;;;;;6071248;23;20171;-73
2023/03/27 07:15:53;;;;;;;9.10;3.93;;;15.30;68.50;;;;;;6063764;23;20290;-74
2023/03/27 07:18:22;;;;;;;7.27;3.47;;;15.40;67.50;;;;;;6065744;23;20640;-72
2023/03/27 07:20:51;;;;;;;7.43;3.50;;;15.40;67.80;;;;;;6064706;23;20188;-74
2023/03/27 07:23:19;;;;;;;11.70;3.20;;;15.50;67.90;;;;;;6062452;23;20182;-73
2023/03/27 07:25:50;;;;;;;6.83;3.10;;;15.60;67.30;;;;;;6060900;23;20475;-73
2023/03/27 07:28:19;;;;;;;4.93;2.60;;;15.60;65.80;;;;;;6061585;23;20605;-72
2023/03/27 07:30:48;;;;;;;5.73;2.97;;;15.60;65.30;;;;;;6060790;23;20179;-73
2023/03/27 07:33:16;;;;;;;5.03;2.73;;;15.70;65.40;;;;;;6062774;23;20237;-74
2023/03/27 07:35:45;;;;;;;5.13;2.50;;;15.80;65.70;;;;;;6063032;23;20198;-72
2023/03/27 07:38:14;;;;;;;4.23;2.50;;;15.90;65.70;;;;;;6065044;23;20179;-74
2023/03/27 07:40:44;;;;;;;6.73;2.87;;;16.00;65.50;;;;;;6065108;23;20544;-72
2023/03/27 07:43:15;;;;;;;8.73;2.97;;;16.00;64.90;;;;;;6060656;23;20214;-75
2023/03/27 07:45:43;;;;;;;6.83;2.80;;;16.10;65.10;;;;;;6064134;23;20163;-72
2023/03/27 07:48:14;;;;;;;13.70;3.20;;;16.10;64.00;;;;;;6066914;23;20185;-74
2023/03/27 07:50:44;;;;;;;6.07;2.67;;;16.20;64.70;;;;;;6063568;23;20170;-73
2023/03/27 07:53:13;;;;;;;5.37;3.00;;;16.20;63.90;;;;;;6060521;23;20206;-73
2023/03/27 07:56:01;;;;;;;7.83;2.50;;;16.30;64.10;;;;;;6064980;23;20267;-73
2023/03/27 07:58:31;;;;;;;7.50;2.73;;;16.30;64.00;;;;;;6066325;23;20202;-73
2023/03/27 08:01:00;;;;;;;4.30;2.73;;;16.40;64.40;;;;;;6064649;23;20269;-73
2023/03/27 08:03:30;;;;;;;6.37;2.80;;;16.40;64.30;;;;;;6063956;23;20253;-74
2023/03/27 08:06:00;;;;;;;7.40;3.20;;;16.50;63.80;;;;;;6063280;23;20171;-73
2023/03/27 08:08:29;;;;;;;4.37;2.23;;;16.50;64.00;;;;;;6065462;23;20183;-72
2023/03/27 08:10:58;;;;;;;4.80;2.50;;;16.60;64.00;;;;;;6063571;23;20592;-76
2023/03/27 08:13:27;;;;;;;8.10;2.67;;;16.70;64.00;;;;;;6062737;23;20174;-74
2023/03/27 08:16:05;;;;;;;5.53;2.47;;;16.80;63.90;;;;;;6063358;23;20520;-74
2023/03/27 08:18:35;;;;;;;5.07;2.50;;;16.80;63.80;;;;;;6066003;23;20509;-74
2023/03/27 08:21:04;;;;;;;5.18;2.75;;;16.90;63.80;;;;;;6064814;23;20470;-73
2023/03/27 08:23:33;;;;;;;5.90;3.07;;;17.00;63.60;;;;;;6063400;23;20234;-73
2023/03/27 08:26:02;;;;;;;6.07;2.67;;;17.10;63.50;;;;;;6066720;23;20245;-73
2023/03/27 08:32:45;;;;;;;9.17;3.37;;;17.20;63.20;;;;;;6060151;23;20186;-75
2023/03/27 08:35:15;;;;;;;7.60;3.57;;;17.30;63.30;;;;;;6056098;23;20182;-73
2023/03/27 08:37:44;;;;;;;6.10;3.13;;;17.40;62.80;;;;;;6062450;23;20159;-74
2023/03/27 08:40:19;;;;;;;5.07;2.90;;;17.50;62.70;;;;;;6060251;23;20215;-74
2023/03/27 08:42:52;;;;;;;5.23;2.60;;;17.50;62.50;;;;;;6060999;23;20166;-73
2023/03/27 08:45:25;;;;;;;3.87;2.40;;;17.60;62.50;;;;;;6063581;23;20159;-73
2023/03/27 08:47:58;;;;;;;7.30;2.43;;;17.60;62.10;;;;;;6062641;23;20170;-73
2023/03/27 08:50:33;;;;;;;8.77;3.03;;;17.70;62.30;;;;;;6063710;23;20173;-73
2023/03/27 08:53:06;;;;;;;6.37;3.00;;;17.70;62.00;;;;;;6062140;23;20219;-72
2023/03/27 08:55:40;;;;;;;6.47;2.67;;;17.60;62.20;;;;;;6062032;23;20187;-72
2023/03/27 08:58:18;;;;;;;7.53;2.67;;;17.60;61.90;;;;;;6062097;23;20206;-72
2023/03/27 09:00:52;;;;;;;6.47;2.97;;;17.70;62.60;;;;;;6065097;23;20158;-75
2023/03/27 09:03:26;;;;;;;6.87;2.77;;;17.70;62.90;;;;;;6064625;23;20163;-73
2023/03/27 09:05:59;;;;;;;7.13;2.67;;;17.80;62.80;;;;;;6063479;23;20241;-73
2023/03/27 09:08:43;;;;;;;6.10;2.83;;;17.80;62.70;;;;;;6064420;23;20162;-72
2023/03/27 09:11:23;;;;;;;7.97;3.00;;;17.80;62.90;;;;;;6062383;23;20218;-73
2023/03/27 09:13:53;;;;;;;5.30;2.67;;;17.90;63.10;;;;;;6064889;23;20163;-72
2023/03/27 09:16:27;;;;;;;6.37;3.10;;;18.00;63.40;;;;;;6062483;23;20206;-72
2023/03/27 09:19:08;;;;;;;6.30;2.47;;;18.00;63.30;;;;;;6065492;23;20166;-72
2023/03/27 09:21:43;;;;;;;7.13;3.37;;;18.10;63.30;;;;;;6064282;23;20162;-73
2023/03/27 09:24:18;;;;;;;5.40;2.73;;;18.20;63.40;;;;;;6063710;23;20165;-72
2023/03/27 09:26:46;;;;;;;5.20;2.93;;;18.30;63.40;;;;;;6062476;23;20537;-72
2023/03/27 09:29:36;;;;;;;7.40;2.80;;;18.30;63.30;;;;;;6064006;23;20222;-72
2023/03/27 09:32:12;;;;;;;5.93;3.10;;;18.40;63.40;;;;;;6061369;23;20169;-72
2023/03/27 09:34:41;;;;;;;4.50;2.90;;;18.40;62.60;;;;;;6060452;23;20213;-72
2023/03/27 09:37:15;;;;;;;6.07;3.03;;;18.50;62.70;;;;;;6062459;23;20190;-75
2023/03/27 09:39:50;;;;;;;5.30;2.90;;;18.60;63.00;;;;;;6061566;23;20248;-76
2023/03/27 09:42:24;;;;;;;7.70;3.33;;;18.60;62.80;;;;;;6061517;23;20196;-74
2023/03/27 09:44:56;;;;;;;4.90;3.20;;;18.60;62.50;;;;;;6067091;23;20222;-74
2023/03/27 09:47:31;;;;;;;6.57;2.57;;;18.70;62.50;;;;;;6063819;23;20163;-74
2023/03/27 09:50:18;;;;;;;9.63;3.60;;;18.70;62.10;;;;;;6065276;23;20202;-74
2023/03/27 09:52:48;;;;;;;5.00;2.83;;;18.80;62.50;;;;;;6062915;23;20254;-74
2023/03/27 09:55:25;;;;;;;11.27;3.10;;;18.80;62.60;;;;;;6063048;23;20182;-74
2023/03/27 09:58:00;;;;;;;5.00;3.20;;;18.90;62.60;;;;;;6063623;23;20269;-75
2023/03/27 10:00:32;;;;;;;6.37;3.20;;;18.90;62.70;;;;;;6068149;23;20199;-75
2023/03/27 10:03:04;;;;;;;8.30;3.73;;;18.90;62.70;;;;;;6061623;23;20241;-74
2023/03/27 10:05:33;;;;;;;10.57;3.63;;;19.00;62.40;;;;;;6066448;23;20190;-77
2023/03/27 10:08:30;;;;;;;7.50;3.17;;;19.00;62.90;;;;;;6067248;23;20179;-75
2023/03/27 10:10:59;;;;;;;6.63;3.30;;;19.20;63.10;;;;;;6065801;23;20234;-75
2023/03/27 10:13:29;;;;;;;8.07;3.20;;;19.20;62.90;;;;;;6066024;23;20178;-76
2023/03/27 10:16:03;;;;;;;7.37;3.13;;;19.30;62.80;;;;;;6065670;23;20262;-75
2023/03/27 10:18:35;;;;;;;5.33;3.30;;;19.40;63.30;;;;;;6068641;23;20500;-74
2023/03/27 10:21:09;;;;;;;6.57;3.27;;;19.60;62.60;;;;;;6065916;23;20221;-74
2023/03/27 10:23:43;;;;;;;6.03;3.10;;;19.70;63.00;;;;;;6064077;23;20237;-74
2023/03/27 10:26:16;;;;;;;11.30;3.43;;;19.80;63.00;;;;;;6065743;23;20162;-75
2023/03/27 10:28:47;;;;;;;6.30;2.72;;;19.90;62.80;;;;;;6067497;23;20234;-74
2023/03/27 10:31:28;;;;;;;4.18;2.45;;;19.90;62.10;;;;;;6066985;23;20966;-74
2023/03/27 10:33:58;;;;;;;5.73;2.40;;;20.00;62.10;;;;;;6067760;23;20214;-74
2023/03/27 10:36:27;;;;;;;6.60;3.05;;;20.10;62.00;;;;;;6064734;23;20200;-74
2023/03/27 10:39:00;;;;;;;4.72;2.35;;;20.20;61.90;;;;;;6066347;23;20183;-73
2023/03/27 10:41:31;;;;;;;4.72;2.45;;;20.20;61.90;;;;;;6062714;23;20193;-75
2023/03/27 10:44:00;;;;;;;7.38;2.80;;;20.30;61.80;;;;;;6065842;23;20237;-74
2023/03/27 10:46:30;;;;;;;7.33;2.70;;;20.30;61.60;;;;;;6064963;23;20231;-74
2023/03/27 10:49:06;;;;;;;7.32;2.47;;;20.30;61.30;;;;;;6067571;23;20186;-74
2023/03/27 10:51:46;;;;;;;5.05;2.75;;;20.40;61.30;;;;;;6067288;23;20217;-74
2023/03/27 10:54:29;;;;;;;9.75;2.70;;;20.40;61.80;;;;;;6066150;23;20166;-73
2023/03/27 10:57:12;;;;;;;6.55;2.83;;;20.50;61.90;;;;;;6067043;23;20182;-74
2023/03/27 10:59:45;;;;;;;5.53;2.80;;;20.60;63.10;;;;;;6066649;23;20604;-74
2023/03/27 11:02:20;;;;;;;5.85;2.95;;;20.60;62.30;;;;;;6064891;23;20249;-76
2023/03/27 11:04:53;;;;;;;4.72;2.60;;;20.80;62.20;;;;;;6065421;23;20166;-73
2023/03/27 11:07:25;;;;;;;5.97;2.70;;;20.80;61.60;;;;;;6063161;23;20665;-73
2023/03/27 11:10:01;;;;;;;5.65;2.83;;;21.00;61.90;;;;;;6066620;23;20737;-74
2023/03/27 11:12:32;;;;;;;5.55;2.88;;;21.00;62.40;;;;;;6062878;23;20162;-73
2023/03/27 11:15:06;;;;;;;5.63;3.22;;;21.00;61.90;;;;;;6064989;23;20218;-74
2023/03/27 11:17:43;;;;;;;4.57;2.65;;;21.20;61.80;;;;;;6064920;23;20214;-73
2023/03/27 11:20:21;;;;;;;4.60;2.45;;;21.20;61.60;;;;;;6065417;23;20159;-73
2023/03/27 11:23:00;;;;;;;7.60;3.10;;;21.30;61.30;;;;;;6064657;23;20695;-73
2023/03/27 11:25:37;;;;;;;3.78;2.45;;;21.40;61.40;;;;;;6064023;23;20234;-74
2023/03/27 11:28:17;;;;;;;6.45;2.78;;;21.40;60.70;;;;;;6064116;23;20159;-73
2023/03/27 11:30:54;;;;;;;5.50;3.10;;;21.50;60.60;;;;;;6063815;23;20159;-73
2023/03/27 11:33:32;;;;;;;4.93;2.50;;;21.60;60.80;;;;;;6063678;23;20456;-74
2023/03/27 11:36:11;;;;;;;5.70;2.78;;;21.70;60.80;;;;;;6064120;23;20163;-74
2023/03/27 11:38:45;;;;;;;4.97;2.78;;;21.70;60.60;;;;;;6065087;23;20556;-73
2023/03/27 11:41:15;;;;;;;9.30;3.10;;;21.80;60.60;;;;;;6063366;23;20176;-73
2023/03/27 11:43:44;;;;;;;5.85;2.97;;;21.80;60.40;;;;;;6065860;23;20159;-73
2023/03/27 11:46:28;;;;;;;6.10;3.17;;;21.80;59.80;;;;;;6062353;23;20217;-74
2023/03/27 11:49:10;;;;;;;5.20;2.78;;;21.80;59.80;;;;;;6065136;23;20170;-74
2023/03/27 11:51:56;;;;;;;6.88;3.97;;;21.80;59.40;;;;;;6063928;23;20497;-74
2023/03/27 11:54:38;;;;;;;6.22;3.10;;;21.80;59.30;;;;;;6064497;23;20166;-74
2023/03/27 11:57:16;;;;;;;5.30;3.10;;;21.80;59.60;;;;;;6063835;23;20235;-74
2023/03/27 12:00:10;;;;;;;7.72;3.50;;;21.90;59.50;;;;;;6064892;23;20190;-74
2023/03/27 12:03:02;;;;;;;5.05;3.40;;;21.90;59.50;;;;;;6064105;23;20692;-73
2023/03/27 12:05:42;;;;;;;5.78;3.25;;;21.80;59.50;;;;;;6062760;23;20185;-75
2023/03/27 12:08:19;;;;;;;7.65;2.90;;;21.90;58.90;;;;;;6064053;23;20159;-73
2023/03/27 12:10:52;;;;;;;10.77;3.08;;;21.90;59.10;;;;;;6062640;23;20167;-73
2023/03/27 12:13:39;;;;;;;6.07;2.60;;;21.90;59.10;;;;;;6066557;23;20676;-75
2023/03/27 12:16:26;;;;;;;4.72;2.55;;;21.90;59.80;;;;;;6060425;23;20170;-75
2023/03/27 12:19:06;;;;;;;6.30;3.00;;;21.90;59.10;;;;;;6066459;23;20269;-73
2023/03/27 12:22:04;;;;;;;6.85;3.47;;;21.90;58.90;;;;;;6057711;23;20632;-76
2023/03/27 12:25:04;;;;;;;5.28;3.00;;;21.80;58.80;;;;;;6065838;23;20163;-75
2023/03/27 12:27:46;;;;;;;6.07;2.92;;;21.80;59.00;;;;;;6062092;23;20218;-75
2023/03/27 12:30:26;;;;;;;8.77;3.45;;;21.80;58.90;;;;;;6064513;23;20163;-76
2023/03/27 12:33:33;;;;;;;5.43;2.60;;;21.80;59.00;;;;;;6063792;23;20629;-74
2023/03/27 12:36:06;;;;;;;5.70;2.85;;;21.80;59.10;;;;;;6021559;23;20182;-74
2023/03/27 12:38:48;;;;;;;4.57;2.80;;;21.80;59.20;;;;;;6051899;23;20214;-73
2023/03/27 12:41:23;;;;;;;7.38;3.05;;;21.70;59.20;;;;;;6061794;23;20178;-74
2023/03/27 12:43:56;;;;;;;4.18;2.50;;;21.70;59.10;;;;;;6065858;23;20173;-74
2023/03/27 12:46:36;;;;;;;7.05;2.95;;;21.70;59.10;;;;;;6060104;23;20205;-74
2023/03/27 12:49:44;;;;;;;7.32;2.67;;;21.70;59.00;;;;;;6064617;23;20155;-75
2023/03/27 12:52:18;;;;;;;5.20;2.40;;;21.70;58.90;;;;;;6064183;23;20179;-73
2023/03/27 12:55:05;;;;;;;5.90;2.83;;;21.70;59.00;;;;;;6065589;23;20163;-73
2023/03/27 12:57:42;;;;;;;6.63;2.72;;;21.70;59.10;;;;;;6062914;23;20513;-74
2023/03/27 13:00:20;;;;;;;4.90;2.38;;;21.70;59.10;;;;;;6063343;23;20159;-75
2023/03/27 13:03:26;;;;;;;8.30;3.22;;;21.70;59.10;;;;;;6062485;23;20166;-74
2023/03/27 13:06:07;;;;;;;5.10;2.55;;;21.70;59.20;;;;;;6066207;23;20237;-74
2023/03/27 13:08:54;;;;;;;3.95;2.40;;;21.60;58.90;;;;;;6067086;23;20162;-74
2023/03/27 13:11:37;;;;;;;7.80;2.55;;;21.60;59.00;;;;;;6061176;23;20688;-73
2023/03/27 13:14:41;;;;;;;8.30;2.90;;;21.50;59.10;;;;;;6065838;23;20624;-73
2023/03/27 13:17:23;;;;;;;12.02;3.03;;;21.40;59.50;;;;;;6021330;23;20700;-73
2023/03/27 13:20:01;;;;;;;8.73;3.92;;;21.40;60.00;;;;;;6059243;23;20177;-75